Time;durP1;ratioP1;P1;durP2;ratioP2;P2;SDS_P1;SDS_P2;PMS_P1;PMS_P2;Temp;Humidity;BMP_temperature;BMP_pressure;BME280_temperature;BME280_humidity;BME280_pressure;Samples;Min_cycle;Max_cycle;Signal;HPM_P1;HPM_P2
2022/12/23 00:01:29;;;;;;;;;;;;;;;20.40;48.44;99909.50;5049166;28;4170;-63
2022/12/23 00:03:55;;;;;;;;;;;;;;;20.41;48.58;99908.13;5035473;28;5266;-64
2022/12/23 00:06:22;;;;;;;;;;;;;;;20.39;48.48;99895.81;5053252;28;4214;-64
2022/12/23 00:08:48;;;;;;;;;;;;;;;20.38;48.44;99900.81;5051833;28;4382;-64
2022/12/23 00:11:15;;;;;;;;;;;;;;;20.39;48.55;99884.31;5042164;28;4137;-64
2022/12/23 00:16:27;;;;;;;;;;;;;;;20.38;48.36;99868.47;5035423;28;4041;-64
2022/12/23 00:18:53;;;;;;;;;;;;;;;20.36;48.41;99869.13;5033077;28;4166;-65
2022/12/23 00:21:20;;;;;;;;;;;;;;;20.36;48.50;99862.63;5031337;28;4115;-64
2022/12/23 00:23:46;;;;;;;;;;;;;;;20.36;48.39;99869.13;5035506;28;4173;-64
2022/12/23 00:26:13;;;;;;;;;;;;;;;20.35;48.43;99867.66;5040257;28;4015;-63
2022/12/23 00:28:40;;;;;;;;;;;;;;;20.34;48.40;99863.34;5040799;28;4102;-64
2022/12/23 00:31:06;;;;;;;;;;;;;;;20.34;48.44;99863.34;5028538;28;4007;-64
2022/12/23 00:33:33;;;;;;;;;;;;;;;20.33;48.47;99858.97;5032321;28;4193;-64
2022/12/23 00:36:00;;;;;;;;;;;;;;;20.32;48.39;99857.53;5039469;28;4092;-64
2022/12/23 00:44:00;;;;;;;;;;;;;;;20.30;48.33;99855.31;5036708;28;5204;-64
2022/12/23 00:46:26;;;;;;;;;;;;;;;20.31;48.39;99858.91;5029448;28;4011;-64
2022/12/23 00:51:37;;;;;;;;;;;;;;;20.30;48.29;99861.06;5042908;28;4027;-64
2022/12/23 00:54:03;;;;;;;;;;;;;;;20.30;48.30;99860.31;5044169;28;4049;-64
2022/12/23 00:56:30;;;;;;;;;;;;;;;20.29;48.40;99858.84;5044691;28;4081;-64
2022/12/23 00:58:56;;;;;;;;;;;;;;;20.27;48.35;99856.66;5042285;28;3989;-64
2022/12/23 01:06:55;;;;;;;;;;;;;;;20.27;48.40;99853.03;5038894;28;4206;-64
2022/12/23 01:09:21;;;;;;;;;;;;;;;20.26;48.26;99842.94;5036292;28;4081;-64
2022/12/23 01:11:48;;;;;;;;;;;;;;;20.25;48.37;99847.97;5033348;28;4252;-64
2022/12/23 01:14:14;;;;;;;;;;;;;;;20.24;48.32;99837.84;5039577;28;4412;-64
2022/12/23 01:16:40;;;;;;;;;;;;;;;20.26;48.33;99842.94;5040486;28;4658;-64
2022/12/23 01:19:07;;;;;;;;;;;;;;;20.24;48.33;99843.59;5044459;28;4235;-64
2022/12/23 01:21:33;;;;;;;;;;;;;;;20.24;48.35;99840.00;5040832;28;4143;-63
2022/12/23 01:23:59;;;;;;;;;;;;;;;20.23;48.28;99838.56;5035291;28;3973;-64
2022/12/23 01:26:26;;;;;;;;;;;;;;;20.26;48.21;99837.19;5036751;28;3901;-64
2022/12/23 01:28:54;;;;;;;;;;;;;;;20.26;48.07;99837.19;5035031;28;4040;-66
2022/12/23 01:31:20;;;;;;;;;;;;;;;20.26;48.23;99832.19;5034648;28;4025;-64
2022/12/23 01:33:46;;;;;;;;;;;;;;;20.25;48.41;99830.72;5038286;28;4187;-64
2022/12/23 01:36:13;;;;;;;;;;;;;;;20.24;48.39;99828.50;5040885;28;5663;-64
2022/12/23 01:38:39;;;;;;;;;;;;;;;20.22;48.44;99825.56;5045964;28;4204;-64
2022/12/23 01:41:05;;;;;;;;;;;;;;;20.22;48.50;99834.19;5044043;28;4128;-64
2022/12/23 01:43:48;;;;;;;;;;;;;;;20.21;48.50;99830.59;5045866;28;4190;-64
2022/12/23 01:46:14;;;;;;;;;;;;;;;20.21;48.52;99824.13;5034128;28;4087;-64
2022/12/23 01:48:42;;;;;;;;;;;;;;;20.21;48.58;99827.00;5044992;28;4505;-64
2022/12/23 01:51:18;;;;;;;;;;;;;;;20.19;48.53;99821.19;5038742;28;4895;-64
2022/12/23 01:53:46;;;;;;;;;;;;;;;20.19;48.52;99821.19;5034073;28;4116;-64
2022/12/23 01:56:13;;;;;;;;;;;;;;;20.18;48.51;99819.69;5040028;28;4585;-64
2022/12/23 01:58:49;;;;;;;;;;;;;;;20.19;48.47;99818.31;5048000;28;4345;-64
2022/12/23 02:04:04;;;;;;;;;;;;;;;20.17;48.50;99807.47;5032498;28;4137;-64
2022/12/23 02:09:23;;;;;;;;;;;;;;;20.16;48.43;99800.25;5041084;28;5684;-64
2022/12/23 02:11:55;;;;;;;;;;;;;;;20.17;48.48;99801.00;5040810;28;3998;-64
2022/12/23 02:17:39;;;;;;;;;;;;;;;20.16;48.45;99793.75;5038413;28;5099;-64
2022/12/23 02:20:17;;;;;;;;;;;;;;;20.15;48.42;99792.31;5042282;28;4120;-64
2022/12/23 02:22:52;;;;;;;;;;;;;;;20.15;48.29;99790.16;5042257;28;5257;-64
2022/12/23 02:25:21;;;;;;;;;;;;;;;20.16;48.27;99788.78;5048769;28;4065;-64
2022/12/23 02:28:06;;;;;;;;;;;;;;;20.15;48.38;99787.28;5041356;28;5591;-64
2022/12/23 02:30:43;;;;;;;;;;;;;;;20.15;48.50;99786.56;5036516;28;4448;-64
2022/12/23 02:33:15;;;;;;;;;;;;;;;20.13;48.47;99781.47;5041217;28;4132;-64
2022/12/23 02:35:54;;;;;;;;;;;;;;;20.13;48.56;99777.88;5039905;28;4506;-64
2022/12/23 02:38:31;;;;;;;;;;;;;;;20.12;48.43;99771.41;5043515;28;4037;-64
2022/12/23 02:41:14;;;;;;;;;;;;;;;20.12;48.56;99764.91;5048354;28;5416;-65
2022/12/23 02:43:42;;;;;;;;;;;;;;;20.11;48.36;99757.69;5042518;28;4172;-64
2022/12/23 02:46:11;;;;;;;;;;;;;;;20.10;48.55;99759.84;5046992;28;4137;-64
2022/12/23 02:48:56;;;;;;;;;;;;;;;20.09;48.41;99759.09;5049091;28;4124;-64
2022/12/23 02:51:25;;;;;;;;;;;;;;;20.09;48.46;99759.09;5045420;28;4096;-64
2022/12/23 02:53:53;;;;;;;;;;;;;;;20.09;48.44;99761.97;5049005;28;4019;-64
2022/12/23 02:56:19;;;;;;;;;;;;;;;20.09;48.38;99756.22;5046534;28;4092;-64
2022/12/23 02:58:48;;;;;;;;;;;;;;;20.08;48.41;99749.00;5046983;28;4130;-64
2022/12/23 03:01:15;;;;;;;;;;;;;;;20.06;48.46;99740.31;5042843;28;4167;-64
2022/12/23 03:03:41;;;;;;;;;;;;;;;20.06;48.41;99740.31;5050607;28;4140;-64
2022/12/23 03:06:22;;;;;;;;;;;;;;;20.06;48.43;99740.31;5041445;28;4108;-64
2022/12/23 03:08:48;;;;;;;;;;;;;;;20.06;48.39;99737.44;5042190;28;4542;-64
2022/12/23 03:11:17;;;;;;;;;;;;;;;20.06;48.44;99740.31;5051116;28;4823;-64
2022/12/23 03:13:58;;;;;;;;;;;;;;;20.06;48.41;99740.31;5042929;28;4195;-64
2022/12/23 03:16:43;;;;;;;;;;;;;;;20.06;48.30;99746.06;5045379;28;4104;-64
2022/12/23 03:19:13;;;;;;;;;;;;;;;20.05;48.41;99744.63;5054360;28;3997;-64
2022/12/23 03:21:42;;;;;;;;;;;;;;;20.04;48.59;99743.16;5035747;28;4232;-64
2022/12/23 03:24:17;;;;;;;;;;;;;;;20.04;48.32;99736.66;5059893;28;4141;-65
2022/12/23 03:26:47;;;;;;;;;;;;;;;20.05;48.36;99738.13;5048508;28;5066;-64
2022/12/23 03:29:18;;;;;;;;;;;;;;;20.04;48.49;99731.66;5052471;28;5212;-64
2022/12/23 03:31:44;;;;;;;;;;;;;;;20.02;48.38;99722.97;5053046;28;4132;-64
2022/12/23 03:34:12;;;;;;;;;;;;;;;20.02;48.26;99722.97;5053246;28;4219;-64
2022/12/23 03:36:39;;;;;;;;;;;;;;;20.04;48.43;99723.03;5052663;28;4234;-64
2022/12/23 03:39:06;;;;;;;;;;;;;;;20.07;48.22;99718.81;5042608;28;4098;-64
2022/12/23 03:41:33;;;;;;;;;;;;;;;20.11;47.98;99723.22;5052447;28;4299;-64
2022/12/23 03:44:05;;;;;;;;;;;;;;;20.14;48.00;99721.88;5059826;28;4443;-64
2022/12/23 03:46:33;;;;;;;;;;;;;;;20.15;48.02;99712.56;5051942;28;4224;-64
2022/12/23 03:49:04;;;;;;;;;;;;;;;20.17;48.19;99709.03;5054137;28;4250;-64
2022/12/23 03:51:44;;;;;;;;;;;;;;;20.19;48.00;99711.97;5052502;28;4171;-64
2022/12/23 03:54:12;;;;;;;;;;;;;;;20.19;48.00;99711.97;5057366;28;4125;-64
2022/12/23 03:56:40;;;;;;;;;;;;;;;20.21;47.98;99718.50;5053234;28;4028;-64
2022/12/23 03:59:39;;;;;;;;;;;;;;;20.21;48.01;99715.63;5038864;28;4208;-64
2022/12/23 04:02:06;;;;;;;;;;;;;;;20.24;47.91;99707.78;4998706;28;5168;-64
2022/12/23 04:04:50;;;;;;;;;;;;;;;20.24;47.82;99707.78;5040908;28;4118;-64
2022/12/23 04:07:18;;;;;;;;;;;;;;;20.25;48.01;99703.50;5040244;28;4228;-64
2022/12/23 04:09:44;;;;;;;;;;;;;;;20.27;48.18;99700.69;5042525;28;4188;-64
2022/12/23 04:12:11;;;;;;;;;;;;;;;20.27;48.29;99694.94;5039991;28;4326;-64
2022/12/23 04:14:37;;;;;;;;;;;;;;;20.28;48.40;99700.00;5043900;28;4093;-64
2022/12/23 04:17:04;;;;;;;;;;;;;;;20.29;48.56;99694.97;5043541;28;3966;-64
2022/12/23 04:19:30;;;;;;;;;;;;;;;20.28;48.82;99693.53;5040497;28;4171;-64
2022/12/23 04:21:57;;;;;;;;;;;;;;;20.28;48.80;99693.53;5044416;28;4045;-64
2022/12/23 04:24:23;;;;;;;;;;;;;;;20.29;48.72;99692.88;5037247;28;4191;-64
2022/12/23 04:26:52;;;;;;;;;;;;;;;20.29;48.96;99697.84;5041127;28;4259;-64
2022/12/23 04:29:18;;;;;;;;;;;;;;;20.29;48.83;99697.84;5036447;28;4169;-64
2022/12/23 04:31:45;;;;;;;;;;;;;;;20.29;48.63;99692.09;5045448;28;4193;-64
2022/12/23 04:34:11;;;;;;;;;;;;;;;20.28;48.42;99690.66;5032417;28;5096;-64
2022/12/23 04:36:37;;;;;;;;;;;;;;;20.28;48.39;99684.91;5036305;28;5497;-64
2022/12/23 04:39:04;;;;;;;;;;;;;;;20.30;48.60;99693.59;5033222;28;4157;-65
2022/12/23 04:41:30;;;;;;;;;;;;;;;20.30;48.90;99682.09;5038535;28;4826;-64
2022/12/23 04:43:56;;;;;;;;;;;;;;;20.29;48.87;99687.13;5040713;28;4145;-64
2022/12/23 04:46:23;;;;;;;;;;;;;;;20.30;48.63;99687.84;5039424;28;4192;-64
2022/12/23 04:48:49;;;;;;;;;;;;;;;20.32;48.68;99693.66;5041741;28;4259;-64
2022/12/23 04:51:15;;;;;;;;;;;;;;;20.33;49.00;99688.63;5039660;28;4193;-64
2022/12/23 04:53:42;;;;;;;;;;;;;;;20.32;48.97;99679.28;5040545;28;4024;-65
2022/12/23 04:56:08;;;;;;;;;;;;;;;20.33;48.85;99685.75;5042114;28;4322;-64
2022/12/23 04:58:34;;;;;;;;;;;;;;;20.33;48.95;99686.47;5036755;28;4131;-64
2022/12/23 05:01:04;;;;;;;;;;;;;;;20.33;48.96;99692.22;5033820;28;5278;-65
2022/12/23 05:03:31;;;;;;;;;;;;;;;20.34;49.02;99693.72;5040577;28;4087;-64
2022/12/23 05:05:57;;;;;;;;;;;;;;;20.33;48.97;99700.13;5042380;28;6267;-65
2022/12/23 05:08:24;;;;;;;;;;;;;;;20.31;48.91;99695.03;5039188;28;5151;-64
2022/12/23 05:10:50;;;;;;;;;;;;;;;20.31;48.63;99689.28;5037985;28;4181;-65
2022/12/23 05:13:16;;;;;;;;;;;;;;;20.32;48.51;99690.03;5034874;28;4230;-64
2022/12/23 05:15:47;;;;;;;;;;;;;;;20.32;48.59;99693.66;5026133;28;4029;-64
2022/12/23 05:18:14;;;;;;;;;;;;;;;20.33;48.76;99692.22;5037684;28;4187;-64
2022/12/23 05:20:40;;;;;;;;;;;;;;;20.35;48.74;99692.28;5039245;28;4099;-64
2022/12/23 05:23:06;;;;;;;;;;;;;;;20.35;48.81;99689.41;5038599;28;5271;-64
2022/12/23 05:25:33;;;;;;;;;;;;;;;20.36;49.14;99690.88;5043106;28;4141;-64
2022/12/23 05:28:00;;;;;;;;;;;;;;;20.37;49.13;99680.84;5039568;28;4016;-65
2022/12/23 05:30:26;;;;;;;;;;;;;;;20.36;49.12;99672.91;5044101;28;5319;-64
2022/12/23 05:32:53;;;;;;;;;;;;;;;20.35;49.19;99675.03;5033653;28;4574;-68
2022/12/23 05:35:20;;;;;;;;;;;;;;;20.36;49.07;99684.38;5045558;28;4042;-64
2022/12/23 05:37:46;;;;;;;;;;;;;;;20.36;48.97;99679.38;5044244;28;4102;-64
2022/12/23 05:40:12;;;;;;;;;;;;;;;20.35;48.96;99689.41;5043862;28;4017;-64
2022/12/23 05:42:43;;;;;;;;;;;;;;;20.35;48.93;99683.66;5041609;28;4160;-65
2022/12/23 05:45:10;;;;;;;;;;;;;;;20.36;49.00;99687.25;5033184;28;4189;-64
2022/12/23 05:47:36;;;;;;;;;;;;;;;20.36;49.00;99688.00;5040950;28;4095;-64
2022/12/23 05:50:02;;;;;;;;;;;;;;;20.35;49.18;99689.41;5039957;28;5330;-64
2022/12/23 05:52:29;;;;;;;;;;;;;;;20.36;49.19;99684.38;5045834;28;4179;-64
2022/12/23 05:54:55;;;;;;;;;;;;;;;20.36;49.25;99685.13;5032062;28;4259;-63
2022/12/23 05:57:21;;;;;;;;;;;;;;;20.37;49.16;99686.59;5042419;28;4113;-64
2022/12/23 05:59:48;;;;;;;;;;;;;;;20.39;49.01;99688.81;5034694;28;4136;-64
2022/12/23 06:02:14;;;;;;;;;;;;;;;20.39;49.21;99703.19;5041489;28;5143;-63
2022/12/23 06:04:41;;;;;;;;;;;;;;;20.39;48.86;99706.78;5037423;28;4234;-63
2022/12/23 06:07:08;;;;;;;;;;;;;;;20.38;48.64;99702.44;5039824;28;5048;-63
2022/12/23 06:09:34;;;;;;;;;;;;;;;20.38;48.54;99711.06;5029621;28;4112;-63
2022/12/23 06:12:01;;;;;;;;;;;;;;;20.35;48.59;99712.41;5032117;28;4191;-63
2022/12/23 06:14:27;;;;;;;;;;;;;;;20.38;48.85;99713.94;5041748;28;4246;-63
2022/12/23 06:16:54;;;;;;;;;;;;;;;20.38;48.95;99728.31;5045178;28;4142;-63
2022/12/23 06:19:21;;;;;;;;;;;;;;;20.38;49.09;99728.31;5045543;28;4312;-63
2022/12/23 06:21:47;;;;;;;;;;;;;;;20.34;48.97;99731.09;5044801;28;4230;-63
2022/12/23 06:24:13;;;;;;;;;;;;;;;20.28;48.80;99725.16;5043718;28;5338;-67
2022/12/23 06:26:40;;;;;;;;;;;;;;;20.28;48.97;99731.63;5028119;28;4107;-68
2022/12/23 06:29:07;;;;;;;;;;;;;;;20.33;48.75;99732.47;5044026;28;5229;-67
2022/12/23 06:31:33;;;;;;;;;;;;;;;20.35;48.93;99746.91;5045629;28;4164;-69
2022/12/23 06:33:59;;;;;;;;;;;;;;;20.41;49.19;99743.47;5024642;28;5208;-65
2022/12/23 06:36:32;;;;;;;;;;;;;;;20.63;51.92;99749.16;5044867;28;4475;-68
2022/12/23 06:38:58;;;;;;;;;;;;;;;20.67;50.50;99743.50;5036514;28;4852;-68
2022/12/23 06:41:24;;;;;;;;;;;;;;;20.76;50.72;99753.81;5043664;28;3936;-68
2022/12/23 06:43:51;;;;;;;;;;;;;;;20.79;50.62;99751.75;5039325;28;4020;-66
2022/12/23 06:46:19;;;;;;;;;;;;;;;20.86;50.62;99756.25;5034903;28;4143;-74
2022/12/23 06:48:46;;;;;;;;;;;;;;;21.34;50.21;99767.53;5039620;28;4005;-73
2022/12/23 06:51:13;;;;;;;;;;;;;;;21.52;49.40;99775.94;5043655;28;4039;-74
2022/12/23 06:53:39;;;;;;;;;;;;;;;21.63;49.09;99779.81;5048474;28;4171;-72
2022/12/23 06:56:06;;;;;;;;;;;;;;;21.69;48.95;99789.31;5037622;28;4148;-73
2022/12/23 06:58:32;;;;;;;;;;;;;;;21.83;48.69;99785.28;5047199;28;4249;-70
2022/12/23 07:00:58;;;;;;;;;;;;;;;21.94;48.69;99790.63;5053101;28;4201;-71
2022/12/23 07:03:25;;;;;;;;;;;;;;;21.94;48.82;99796.41;5051975;28;4008;-74
2022/12/23 07:05:51;;;;;;;;;;;;;;;22.06;48.21;99801.69;5046958;28;5151;-72
2022/12/23 07:08:18;;;;;;;;;;;;;;;22.17;48.40;99794.75;5046877;28;4193;-72
2022/12/23 07:10:44;;;;;;;;;;;;;;;22.08;48.51;99798.88;5052246;28;4189;-73
2022/12/23 07:13:10;;;;;;;;;;;;;;;22.11;48.24;99797.47;5051600;28;4372;-74
2022/12/23 07:15:39;;;;;;;;;;;;;;;22.10;48.22;99796.00;5038325;28;4194;-72
2022/12/23 07:18:06;;;;;;;;;;;;;;;22.23;48.31;99796.31;5040633;28;4075;-71
2022/12/23 07:20:32;;;;;;;;;;;;;;;22.28;48.20;99797.84;5047507;28;4031;-72
2022/12/23 07:22:59;;;;;;;;;;;;;;;22.05;48.73;99791.56;5045199;28;4103;-70
2022/12/23 07:25:31;;;;;;;;;;;;;;;21.84;49.40;99792.53;5039905;28;5664;-71
2022/12/23 07:28:10;;;;;;;;;;;;;;;22.38;48.49;99801.69;5047140;28;5302;-71
2022/12/23 07:30:36;;;;;;;;;;;;;;;22.54;47.72;99798.44;5049795;28;4167;-71
2022/12/23 07:33:03;;;;;;;;;;;;;;;22.30;47.58;99806.56;5047681;28;4222;-73
2022/12/23 07:35:29;;;;;;;;;;;;;;;21.99;48.61;99814.50;5045935;28;4294;-72
2022/12/23 07:37:55;;;;;;;;;;;;;;;21.97;48.73;99814.47;5042753;28;4240;-72
2022/12/23 07:40:22;;;;;;;;;;;;;;;21.93;48.39;99811.47;5039390;28;5055;-71
2022/12/23 07:42:48;;;;;;;;;;;;;;;21.96;48.53;99827.41;5038562;28;4209;-71
2022/12/23 07:45:15;;;;;;;;;;;;;;;21.91;49.07;99820.06;5047354;28;4563;-71
2022/12/23 07:47:41;;;;;;;;;;;;;;;21.92;49.22;99828.03;5056682;28;4065;-72
2022/12/23 07:50:13;;;;;;;;;;;;;;;22.08;48.29;99839.22;5047165;28;4065;-71
2022/12/23 07:52:40;;;;;;;;;;;;;;;22.10;48.47;99833.47;5053329;28;4190;-72
2022/12/23 07:55:06;;;;;;;;;;;;;;;22.02;47.93;99835.47;5048705;28;4169;-72
2022/12/23 07:57:36;;;;;;;;;;;;;;;21.99;48.79;99836.81;5057810;28;4173;-71
2022/12/23 08:00:04;;;;;;;;;;;;;;;22.07;48.60;99831.97;5045329;28;4156;-71
2022/12/23 08:02:37;;;;;;;;;;;;;;;21.95;48.11;99832.44;5043946;28;4170;-74
2022/12/23 08:05:04;;;;;;;;;;;;;;;21.97;48.28;99834.63;5050694;28;4166;-73
2022/12/23 08:07:30;;;;;;;;;;;;;;;22.04;48.61;99836.25;5056867;28;4134;-73
2022/12/23 08:09:57;;;;;;;;;;;;;;;21.95;48.69;99832.44;5053645;28;4291;-70
2022/12/23 08:12:23;;;;;;;;;;;;;;;22.03;48.57;99843.41;5048127;28;4116;-73
2022/12/23 08:14:51;;;;;;;;;;;;;;;22.16;48.26;99844.44;5043352;28;5128;-70
2022/12/23 08:17:19;;;;;;;;;;;;;;;22.12;46.98;99842.19;5051199;28;4174;-70
2022/12/23 08:19:46;;;;;;;;;;;;;;;21.87;45.85;99849.53;5049424;28;4158;-68
2022/12/23 08:22:13;;;;;;;;;;;;;;;21.88;45.91;99851.00;5044954;28;5081;-68
2022/12/23 08:24:39;;;;;;;;;;;;;;;21.91;45.85;99851.78;5051531;28;3996;-69
2022/12/23 08:27:05;;;;;;;;;;;;;;;21.83;45.89;99857.34;5047013;28;4085;-68
2022/12/23 08:29:32;;;;;;;;;;;;;;;21.81;45.91;99851.53;5054654;28;4849;-65
2022/12/23 08:32:01;;;;;;;;;;;;;;;21.71;45.86;99849.13;5052947;28;5416;-69
2022/12/23 08:34:28;;;;;;;;;;;;;;;21.74;46.05;99848.50;5044025;28;4174;-66
2022/12/23 08:36:54;;;;;;;;;;;;;;;21.55;45.78;99843.69;5037573;28;5226;-67
2022/12/23 08:39:20;;;;;;;;;;;;;;;21.44;46.02;99850.59;5041298;28;4099;-67
2022/12/23 08:41:48;;;;;;;;;;;;;;;21.60;46.81;99856.03;5045402;28;4392;-70
2022/12/23 08:44:14;;;;;;;;;;;;;;;21.84;46.12;99867.47;5039809;28;4193;-72
2022/12/23 08:46:41;;;;;;;;;;;;;;;21.93;45.44;99869.13;5038701;28;4206;-73
2022/12/23 08:49:07;;;;;;;;;;;;;;;22.01;45.39;99866.41;5050352;28;4442;-70
2022/12/23 08:51:34;;;;;;;;;;;;;;;21.75;45.70;99867.25;5048774;28;4115;-68
2022/12/23 08:54:00;;;;;;;;;;;;;;;17.80;51.72;99871.44;5042969;28;4207;-71
2022/12/23 08:56:28;;;;;;;;;;;;;;;20.02;48.29;99883.91;5042974;28;4069;-76
2022/12/23 08:58:54;;;;;;;;;;;;;;;20.86;46.94;99883.56;5052410;28;4093;-71
2022/12/23 09:01:27;;;;;;;;;;;;;;;21.21;46.29;99896.06;5044883;28;4206;-69
2022/12/23 09:03:53;;;;;;;;;;;;;;;21.45;46.49;99892.41;5049961;28;4141;-70
2022/12/23 09:06:23;;;;;;;;;;;;;;;21.61;46.34;99892.81;5053021;28;5396;-69
2022/12/23 09:08:55;;;;;;;;;;;;;;;21.67;46.13;99895.88;5049552;28;4154;-69
2022/12/23 09:11:27;;;;;;;;;;;;;;;21.52;46.38;99888.25;5042210;28;4096;-68
2022/12/23 09:13:57;;;;;;;;;;;;;;;21.52;46.26;99899.78;5039368;28;5303;-68
2022/12/23 09:16:23;;;;;;;;;;;;;;;21.50;46.49;99911.25;5051703;28;4077;-70
2022/12/23 09:18:50;;;;;;;;;;;;;;;21.59;46.60;99912.94;5047658;28;5460;-74
2022/12/23 09:21:22;;;;;;;;;;;;;;;21.49;46.32;99910.53;5039202;28;6677;-73
2022/12/23 09:23:48;;;;;;;;;;;;;;;21.47;46.49;99924.13;5040646;28;4011;-73
2022/12/23 09:26:19;;;;;;;;;;;;;;;21.43;46.69;99924.03;5042317;28;4050;-73
2022/12/23 09:28:45;;;;;;;;;;;;;;;21.44;46.85;99939.88;5034572;28;4216;-74
2022/12/23 09:31:11;;;;;;;;;;;;;;;21.44;46.91;99948.53;5033181;28;5340;-73
2022/12/23 09:33:38;;;;;;;;;;;;;;;21.43;46.92;99952.81;5042327;28;5319;-72
2022/12/23 09:36:10;;;;;;;;;;;;;;;21.43;46.84;99961.47;5046439;28;4215;-72
2022/12/23 09:38:36;;;;;;;;;;;;;;;21.40;47.11;99969.31;5045149;28;4301;-72
2022/12/23 09:41:04;;;;;;;;;;;;;;;21.43;47.24;99970.09;5040806;28;4412;-72
2022/12/23 09:43:34;;;;;;;;;;;;;;;21.42;47.16;99971.53;5044563;28;4297;-72
2022/12/23 09:46:23;;;;;;;;;;;;;;;21.42;47.15;99974.41;5042859;28;5421;-72
2022/12/23 09:49:04;;;;;;;;;;;;;;;21.43;46.86;99981.63;5033135;28;3913;-73
2022/12/23 09:51:30;;;;;;;;;;;;;;;21.42;47.30;99985.94;5045635;28;3989;-72
2022/12/23 09:54:04;;;;;;;;;;;;;;;21.41;47.41;99990.94;5045877;28;4147;-74
2022/12/23 09:56:38;;;;;;;;;;;;;;;21.43;47.26;99987.38;5042446;28;5443;-73
2022/12/23 09:59:10;;;;;;;;;;;;;;;21.43;47.29;99987.38;5042184;28;4166;-72
2022/12/23 10:01:38;;;;;;;;;;;;;;;21.52;47.71;99994.84;5040944;28;4284;-69
2022/12/23 10:04:22;;;;;;;;;;;;;;;21.80;47.75;99994.88;5040895;28;5458;-72
2022/12/23 10:07:00;;;;;;;;;;;;;;;21.94;47.07;99983.75;5044871;28;4277;-72
2022/12/23 10:09:31;;;;;;;;;;;;;;;21.90;47.08;99980.03;5043619;28;4047;-68
2022/12/23 10:11:58;;;;;;;;;;;;;;;21.65;47.66;99973.59;5041076;28;6251;-72
2022/12/23 10:14:28;;;;;;;;;;;;;;;21.67;47.47;99970.78;5043709;28;4014;-71
2022/12/23 10:16:55;;;;;;;;;;;;;;;21.86;47.62;99974.88;5042701;28;4085;-73
2022/12/23 10:19:26;;;;;;;;;;;;;;;21.88;47.80;99971.31;5046717;28;4209;-75
2022/12/23 10:22:01;;;;;;;;;;;;;;;21.93;47.47;99973.63;5041757;28;4154;-73
2022/12/23 10:24:29;;;;;;;;;;;;;;;21.96;47.40;99963.59;5042670;28;4171;-75
2022/12/23 10:26:56;;;;;;;;;;;;;;;21.99;47.53;99969.41;5037845;28;4044;-76
2022/12/23 10:29:23;;;;;;;;;;;;;;;22.00;47.35;99959.38;5043413;28;4260;-73
2022/12/23 10:31:57;;;;;;;;;;;;;;;22.04;47.48;99965.97;5044507;28;4181;-74
2022/12/23 10:34:26;;;;;;;;;;;;;;;21.84;47.61;99985.63;5045685;28;4136;-75
2022/12/23 10:37:04;;;;;;;;;;;;;;;21.74;48.17;99977.44;5042165;28;4127;-76
2022/12/23 10:39:36;;;;;;;;;;;;;;;21.80;47.67;99973.97;5039219;28;5967;-73
2022/12/23 10:42:20;;;;;;;;;;;;;;;21.99;47.51;99973.03;5047973;28;5236;-75
2022/12/23 10:45:05;;;;;;;;;;;;;;;21.97;47.58;99967.22;5042065;28;4306;-71
2022/12/23 10:47:50;;;;;;;;;;;;;;;21.94;47.93;99968.56;5049832;28;4060;-70
2022/12/23 10:50:26;;;;;;;;;;;;;;;22.02;47.40;99974.56;5044149;28;3993;-72
2022/12/23 10:52:53;;;;;;;;;;;;;;;22.02;47.66;99980.31;5043170;28;4175;-74
2022/12/23 10:55:28;;;;;;;;;;;;;;;22.07;47.36;99973.25;5041856;28;4078;-72
2022/12/23 10:58:03;;;;;;;;;;;;;;;21.92;47.76;99977.16;5039547;28;4034;-74
2022/12/23 11:00:29;;;;;;;;;;;;;;;21.78;48.16;100002.72;5044421;28;4178;-77
2022/12/23 11:03:05;;;;;;;;;;;;;;;21.78;48.11;100002.72;5039518;28;4157;-76
2022/12/23 11:05:31;;;;;;;;;;;;;;;21.93;47.43;99990.19;5035539;28;4171;-71
2022/12/23 11:07:58;;;;;;;;;;;;;;;21.88;47.59;99994.38;5042945;28;4056;-77
2022/12/23 11:10:27;;;;;;;;;;;;;;;21.93;47.67;99996.66;5040952;28;4006;-79
2022/12/23 11:12:53;;;;;;;;;;;;;;;21.98;47.80;99993.91;5041494;28;4102;-79
2022/12/23 11:15:23;;;;;;;;;;;;;;;21.99;47.80;99998.22;5040601;28;4271;-77
2022/12/23 11:18:00;;;;;;;;;;;;;;;21.98;47.89;99991.75;5035849;28;4213;-76
2022/12/23 11:20:27;;;;;;;;;;;;;;;22.02;48.09;99986.09;5046657;28;4024;-76
2022/12/23 11:23:00;;;;;;;;;;;;;;;22.08;47.71;99994.91;5051420;28;4493;-75
2022/12/23 11:25:34;;;;;;;;;;;;;;;22.05;48.09;99992.63;5045746;28;4121;-75
2022/12/23 11:28:18;;;;;;;;;;;;;;;22.00;47.78;99999.72;5047708;28;4283;-75
2022/12/23 11:30:44;;;;;;;;;;;;;;;22.04;48.13;100000.56;5045595;28;4114;-73
2022/12/23 11:33:24;;;;;;;;;;;;;;;22.09;47.84;100007.16;5044924;28;3976;-84
2022/12/23 11:36:04;;;;;;;;;;;;;;;22.11;47.86;100005.06;5043469;28;4250;-78
2022/12/23 11:38:31;;;;;;;;;;;;;;;22.21;47.96;100009.63;5036764;28;4196;-76
2022/12/23 11:40:57;;;;;;;;;;;;;;;21.97;46.81;100019.13;5040519;28;5271;-71
2022/12/23 11:43:29;;;;;;;;;;;;;;;21.79;47.26;100015.75;5036771;28;5245;-72
2022/12/23 11:46:14;;;;;;;;;;;;;;;21.76;47.83;100023.56;5038799;28;4129;-72
2022/12/23 11:48:41;;;;;;;;;;;;;;;21.74;48.17;100027.16;5044308;28;5379;-71
2022/12/23 11:51:07;;;;;;;;;;;;;;;21.71;48.79;100025.59;5044347;28;4428;-71
2022/12/23 11:53:37;;;;;;;;;;;;;;;21.72;49.23;100029.25;5045115;28;4010;-65
2022/12/23 11:56:03;;;;;;;;;;;;;;;21.84;49.09;100029.56;5045089;28;4178;-69
2022/12/23 11:58:31;;;;;;;;;;;;;;;22.04;49.64;100035.16;5045610;28;4162;-69
2022/12/23 12:00:58;;;;;;;;;;;;;;;22.07;49.52;100045.31;5048838;28;4459;-71
2022/12/23 12:03:25;;;;;;;;;;;;;;;22.14;49.47;100043.31;5048253;28;4263;-69
2022/12/23 12:05:53;;;;;;;;;;;;;;;22.20;49.99;100042.75;5048911;28;3880;-69
2022/12/23 12:08:21;;;;;;;;;;;;;;;22.21;50.09;100036.31;5046974;28;4283;-70
2022/12/23 12:10:49;;;;;;;;;;;;;;;22.20;50.59;100043.50;5048042;28;4313;-69
2022/12/23 12:13:26;;;;;;;;;;;;;;;22.19;50.85;100047.78;5044645;28;3962;-69
2022/12/23 12:16:08;;;;;;;;;;;;;;;22.26;50.46;100042.94;5046318;28;4320;-72
2022/12/23 12:18:34;;;;;;;;;;;;;;;22.31;50.57;100039.47;5045039;28;4421;-68
2022/12/23 12:21:05;;;;;;;;;;;;;;;22.37;50.76;100025.19;5048510;28;4180;-72
2022/12/23 12:23:51;;;;;;;;;;;;;;;22.17;51.11;100024.66;5049323;28;5447;-67
2022/12/23 12:26:37;;;;;;;;;;;;;;;22.18;51.14;100017.47;5048398;28;4939;-70
2022/12/23 12:29:22;;;;;;;;;;;;;;;22.16;51.36;100017.44;5044860;28;4046;-68
2022/12/23 12:31:53;;;;;;;;;;;;;;;22.17;51.61;100025.41;5047054;28;4004;-67
2022/12/23 12:34:26;;;;;;;;;;;;;;;22.24;51.56;100005.38;5048530;28;4029;-67
2022/12/23 12:36:58;;;;;;;;;;;;;;;22.18;51.53;100003.06;5046563;28;4228;-70
2022/12/23 12:39:29;;;;;;;;;;;;;;;22.23;51.33;100010.44;5045868;28;4069;-67
2022/12/23 12:41:58;;;;;;;;;;;;;;;22.05;51.57;100013.53;5043650;28;4229;-69
2022/12/23 12:44:36;;;;;;;;;;;;;;;22.16;52.20;100006.63;5044165;28;4177;-67
2022/12/23 12:47:08;;;;;;;;;;;;;;;22.16;51.50;99995.09;5045163;28;4137;-68
2022/12/23 12:50:01;;;;;;;;;;;;;;;22.00;51.77;100011.97;5043517;28;4106;-68
2022/12/23 12:52:28;;;;;;;;;;;;;;;21.12;49.84;100018.16;5043042;28;3926;-67
2022/12/23 12:54:58;;;;;;;;;;;;;;;20.76;50.99;100012.75;5041346;28;5224;-65
2022/12/23 12:57:24;;;;;;;;;;;;;;;20.71;50.04;100032.03;5041032;28;4724;-65
2022/12/23 12:59:54;;;;;;;;;;;;;;;20.41;49.74;100020.25;5045631;28;4001;-66
2022/12/23 13:02:36;;;;;;;;;;;;;;;20.22;49.27;100018.91;5036581;28;4271;-65
2022/12/23 13:05:09;;;;;;;;;;;;;;;20.23;49.22;100016.78;5043409;28;4140;-65
2022/12/23 13:07:39;;;;;;;;;;;;;;;20.37;48.94;100020.13;5047045;28;4103;-65
2022/12/23 13:10:12;;;;;;;;;;;;;;;20.43;48.53;100017.44;5044046;28;4147;-66
2022/12/23 13:12:44;;;;;;;;;;;;;;;20.11;48.90;100010.59;5042196;28;4196;-66
2022/12/23 13:15:16;;;;;;;;;;;;;;;20.00;49.11;100007.38;5045532;28;4039;-66
2022/12/23 13:17:44;;;;;;;;;;;;;;;20.04;49.32;100001.78;5044157;28;4255;-68
2022/12/23 13:20:31;;;;;;;;;;;;;;;20.07;48.85;100006.19;5042785;28;4159;-66
2022/12/23 13:22:59;;;;;;;;;;;;;;;19.93;48.82;100002.84;5036883;28;4105;-68
2022/12/23 13:25:48;;;;;;;;;;;;;;;20.64;50.10;99992.25;5043000;28;4091;-63
2022/12/23 13:28:19;;;;;;;;;;;;;;;21.20;51.11;99989.59;5044748;28;5242;-64
2022/12/23 13:30:47;;;;;;;;;;;;;;;20.98;48.57;99974.53;5045495;28;6155;-64
2022/12/23 13:33:24;;;;;;;;;;;;;;;20.90;47.86;99966.41;5030864;28;5115;-65